Time;durP1;ratioP1;P1;durP2;ratioP2;P2;SDS_P1;SDS_P2;PMS_P1;PMS_P2;Temp;Humidity;BMP_temperature;BMP_pressure;BME280_temperature;BME280_humidity;BME280_pressure;Samples;Min_cycle;Max_cycle;Signal;HPM_P1;HPM_P2
2020/12/11 00:01:36;;;;;;;3.00;1.23;;;2.90;99.90;;;;;;5083579;28;20195;-77
2020/12/11 00:04:02;;;;;;;3.17;2.87;;;3.00;99.90;;;;;;5102064;28;20526;-77
2020/12/11 00:06:28;;;;;;;5.97;1.77;;;3.00;99.90;;;;;;5082537;28;20179;-78
2020/12/11 00:08:53;;;;;;;1.20;0.90;;;3.00;99.90;;;;;;5100658;28;20188;-77
2020/12/11 00:11:26;;;;;;;2.43;1.70;;;3.00;99.90;;;;;;5101378;28;20177;-77
2020/12/11 00:13:51;;;;;;;1.67;1.57;;;3.00;99.90;;;;;;5082372;28;20177;-77
2020/12/11 00:16:17;;;;;;;2.80;2.60;;;3.00;99.90;;;;;;5100192;28;20203;-77
2020/12/11 00:18:42;;;;;;;1.40;1.30;;;3.00;99.90;;;;;;5121529;22;20229;-78
2020/12/11 00:21:08;;;;;;;0.87;0.87;;;3.00;99.90;;;;;;5100969;28;20176;-79
2020/12/11 00:23:33;;;;;;;1.63;1.53;;;3.00;99.90;;;;;;5082953;28;20176;-78
2020/12/11 00:25:59;;;;;;;2.30;2.20;;;3.10;99.90;;;;;;5082978;28;20181;-80
2020/12/11 00:28:29;;;;;;;1.77;1.67;;;3.10;99.90;;;;;;5100582;28;20724;-80
2020/12/11 00:30:55;;;;;;;3.70;2.63;;;3.10;99.90;;;;;;5100576;28;20732;-79
2020/12/11 00:33:24;;;;;;;3.17;1.87;;;3.20;99.90;;;;;;5100773;28;20174;-79
2020/12/11 00:35:50;;;;;;;1.57;1.43;;;3.10;99.90;;;;;;5083239;28;20170;-79
2020/12/11 00:38:16;;;;;;;3.73;1.40;;;3.20;99.90;;;;;;5082459;28;20193;-80
2020/12/11 00:40:42;;;;;;;2.73;2.53;;;3.20;99.90;;;;;;5101105;28;20204;-78
2020/12/11 00:43:08;;;;;;;1.00;0.87;;;3.30;99.90;;;;;;5082180;28;20173;-79
2020/12/11 00:45:33;;;;;;;1.23;0.83;;;3.30;99.90;;;;;;5100090;28;20632;-78
2020/12/11 00:47:59;;;;;;;1.90;1.43;;;3.30;99.90;;;;;;5100675;28;20248;-78
2020/12/11 00:50:24;;;;;;;2.10;1.70;;;3.20;99.90;;;;;;5081923;28;20176;-80
2020/12/11 00:52:50;;;;;;;0.10;0.10;;;3.20;99.90;;;;;;5081922;28;20177;-79
2020/12/11 00:55:16;;;;;;;1.40;1.30;;;3.20;99.90;;;;;;5081708;28;20212;-79
2020/12/11 00:57:43;;;;;;;1.47;1.33;;;3.20;99.90;;;;;;5099239;28;20169;-79
2020/12/11 01:00:13;;;;;;;2.13;1.13;;;3.30;99.90;;;;;;5081125;28;20216;-79
2020/12/11 01:02:38;;;;;;;1.23;1.13;;;3.30;99.90;;;;;;5100386;28;20169;-79
2020/12/11 01:05:04;;;;;;;1.83;1.73;;;3.30;99.90;;;;;;5081775;28;20174;-78
2020/12/11 01:07:30;;;;;;;1.93;1.43;;;3.40;99.90;;;;;;5081751;28;20545;-80
2020/12/11 01:09:55;;;;;;;0.50;0.50;;;3.40;99.90;;;;;;5081753;28;20611;-79
2020/12/11 01:12:21;;;;;;;4.67;3.00;;;3.50;99.90;;;;;;5081239;28;20625;-79
2020/12/11 01:14:46;;;;;;;1.33;1.23;;;3.60;99.90;;;;;;5100678;28;20188;-80
2020/12/11 01:17:12;;;;;;;2.17;2.00;;;3.60;99.90;;;;;;5081504;28;20286;-80
2020/12/11 01:19:37;;;;;;;1.03;0.60;;;3.60;99.90;;;;;;5081336;28;20691;-79
2020/12/11 01:22:04;;;;;;;0.70;0.70;;;3.60;99.90;;;;;;5081625;28;20629;-79
2020/12/11 01:24:31;;;;;;;1.20;1.07;;;3.60;99.90;;;;;;5081320;28;20172;-78
2020/12/11 01:26:57;;;;;;;1.87;1.77;;;3.60;99.90;;;;;;5099640;28;20180;-79
2020/12/11 01:29:22;;;;;;;0.60;0.60;;;3.60;99.90;;;;;;5099254;28;20188;-80
2020/12/11 01:31:48;;;;;;;2.27;2.07;;;3.70;99.90;;;;;;5081047;28;20271;-78
2020/12/11 01:34:13;;;;;;;3.70;1.40;;;3.70;99.90;;;;;;5099545;28;20256;-80
2020/12/11 01:36:39;;;;;;;0.73;0.50;;;3.70;99.90;;;;;;5099422;28;20169;-79
2020/12/11 01:39:04;;;;;;;0.90;0.90;;;3.60;99.90;;;;;;5099720;28;20675;-78
2020/12/11 01:41:32;;;;;;;1.20;1.17;;;3.50;99.90;;;;;;5099578;28;20165;-79
2020/12/11 01:44:07;;;;;;;1.70;1.60;;;3.60;99.90;;;;;;5099287;28;20266;-79
2020/12/11 01:46:41;;;;;;;2.10;2.00;;;3.50;99.90;;;;;;5099863;28;20174;-79
2020/12/11 01:49:08;;;;;;;0.83;0.83;;;3.40;99.90;;;;;;5099337;28;20200;-78
2020/12/11 01:51:35;;;;;;;1.87;1.60;;;3.40;99.90;;;;;;5099323;28;20173;-79
2020/12/11 01:54:02;;;;;;;0.57;0.57;;;3.40;99.90;;;;;;5080362;28;20271;-79
2020/12/11 01:56:32;;;;;;;1.30;0.87;;;3.50;99.90;;;;;;5099418;28;20181;-79
2020/12/11 01:59:03;;;;;;;0.27;0.27;;;3.40;99.90;;;;;;5080991;28;20223;-80
2020/12/11 02:01:34;;;;;;;2.90;2.70;;;3.50;99.90;;;;;;5081161;28;20182;-80
2020/12/11 02:03:59;;;;;;;1.23;1.03;;;3.60;99.90;;;;;;5081731;28;20538;-79
2020/12/11 02:06:25;;;;;;;1.40;1.30;;;3.50;99.90;;;;;;5080947;28;20173;-79
2020/12/11 02:08:55;;;;;;;1.37;1.30;;;3.60;99.90;;;;;;5098926;28;20196;-80
2020/12/11 02:11:22;;;;;;;3.07;2.93;;;3.70;99.90;;;;;;5080860;28;20207;-79
2020/12/11 02:13:47;;;;;;;1.37;1.27;;;3.70;99.90;;;;;;5080509;28;20176;-79
2020/12/11 02:16:13;;;;;;;3.53;2.23;;;3.60;99.90;;;;;;5099364;28;20285;-79
2020/12/11 02:18:41;;;;;;;2.13;2.00;;;3.70;99.90;;;;;;5080404;28;20311;-79
2020/12/11 02:21:08;;;;;;;1.80;1.70;;;3.70;99.90;;;;;;5081090;28;20251;-79
2020/12/11 02:23:33;;;;;;;0.70;0.70;;;3.80;99.90;;;;;;5081363;28;20181;-79
2020/12/11 02:25:59;;;;;;;1.90;1.80;;;3.80;99.90;;;;;;5080713;28;20234;-79
2020/12/11 02:28:30;;;;;;;2.87;2.30;;;3.80;99.90;;;;;;5098151;28;20196;-79
2020/12/11 02:30:57;;;;;;;1.13;1.13;;;3.80;99.90;;;;;;5080145;28;20177;-80
2020/12/11 02:33:22;;;;;;;1.67;1.57;;;3.90;99.90;;;;;;5098010;28;20194;-79
2020/12/11 02:35:48;;;;;;;1.67;1.57;;;3.90;99.90;;;;;;5079772;28;20579;-79
2020/12/11 02:38:14;;;;;;;0.93;0.83;;;4.00;99.90;;;;;;5080504;28;20216;-79
2020/12/11 02:40:48;;;;;;;1.93;1.83;;;4.00;99.90;;;;;;5079930;28;20201;-80
2020/12/11 02:43:13;;;;;;;1.07;1.07;;;4.00;99.90;;;;;;5081096;28;20626;-80
2020/12/11 02:45:40;;;;;;;1.67;1.57;;;4.00;99.90;;;;;;5080225;28;20192;-79
2020/12/11 02:48:05;;;;;;;0.97;0.83;;;4.00;99.90;;;;;;5081055;28;20201;-80
2020/12/11 02:50:31;;;;;;;0.50;0.50;;;3.90;99.90;;;;;;5098038;28;20549;-80
2020/12/11 02:52:56;;;;;;;1.30;1.27;;;3.90;99.90;;;;;;5080360;28;20173;-79
2020/12/11 02:55:22;;;;;;;4.17;2.53;;;3.90;99.90;;;;;;5080422;28;20602;-79
2020/12/11 02:57:47;;;;;;;1.93;1.83;;;3.90;99.90;;;;;;5079508;28;20173;-79
2020/12/11 03:00:13;;;;;;;1.57;1.47;;;3.90;99.90;;;;;;5079773;28;20190;-79
2020/12/11 03:02:38;;;;;;;1.27;1.27;;;3.90;99.90;;;;;;5080456;28;20167;-79
2020/12/11 03:05:04;;;;;;;0.87;0.73;;;4.00;99.90;;;;;;5080161;28;20177;-79
2020/12/11 03:07:29;;;;;;;1.37;0.80;;;3.90;99.90;;;;;;5079783;28;20193;-79
2020/12/11 03:09:55;;;;;;;2.07;0.73;;;4.00;99.90;;;;;;5080079;28;20197;-80
2020/12/11 03:12:20;;;;;;;2.47;2.37;;;4.00;99.90;;;;;;5080127;28;20173;-80
2020/12/11 03:14:46;;;;;;;1.87;1.77;;;4.00;99.90;;;;;;5098602;28;20200;-79
2020/12/11 03:17:11;;;;;;;2.47;2.27;;;4.00;99.90;;;;;;5080011;28;20219;-78
2020/12/11 03:19:37;;;;;;;2.70;1.93;;;3.90;99.90;;;;;;5079377;28;20297;-78
2020/12/11 03:22:02;;;;;;;3.37;2.53;;;3.90;99.90;;;;;;5080122;28;20268;-79
2020/12/11 03:24:28;;;;;;;2.00;1.43;;;3.90;99.90;;;;;;5083473;28;20624;-79
2020/12/11 03:26:53;;;;;;;1.47;1.43;;;3.90;99.90;;;;;;5101942;28;20176;-79
2020/12/11 03:29:19;;;;;;;1.77;1.63;;;3.90;99.90;;;;;;5083695;28;20249;-80
2020/12/11 03:31:44;;;;;;;2.37;1.43;;;3.90;99.90;;;;;;5102425;28;20168;-80
2020/12/11 03:34:10;;;;;;;1.70;1.60;;;3.90;99.90;;;;;;5083687;28;20538;-80
2020/12/11 03:36:35;;;;;;;2.60;2.40;;;3.90;99.90;;;;;;5083260;28;20655;-79
2020/12/11 03:39:01;;;;;;;1.37;1.37;;;3.90;99.90;;;;;;5101305;28;20208;-78
2020/12/11 03:41:26;;;;;;;1.83;1.67;;;3.90;99.90;;;;;;5083021;28;20173;-79
2020/12/11 03:43:52;;;;;;;1.83;1.73;;;3.90;99.90;;;;;;5101363;28;20253;-78
2020/12/11 03:46:19;;;;;;;1.43;1.20;;;3.90;99.90;;;;;;5083570;28;20246;-80
2020/12/11 03:48:46;;;;;;;1.50;1.40;;;3.80;99.90;;;;;;5102223;28;20221;-79
2020/12/11 03:51:19;;;;;;;2.70;2.50;;;3.70;99.90;;;;;;5083416;28;20178;-79
2020/12/11 03:53:46;;;;;;;3.43;2.87;;;3.70;99.90;;;;;;5083326;28;20706;-79
2020/12/11 03:56:13;;;;;;;2.60;0.87;;;3.70;99.90;;;;;;5101675;28;20222;-78
2020/12/11 03:58:39;;;;;;;1.70;1.60;;;3.70;99.90;;;;;;5083246;28;20197;-79
2020/12/11 04:01:04;;;;;;;1.87;1.53;;;3.70;99.90;;;;;;5083067;28;20174;-79
2020/12/11 04:03:30;;;;;;;2.50;2.13;;;3.70;99.90;;;;;;5101426;28;20177;-79
2020/12/11 04:05:55;;;;;;;0.83;0.83;;;3.70;99.90;;;;;;5101086;28;20181;-80
2020/12/11 04:08:21;;;;;;;1.60;1.27;;;3.70;99.90;;;;;;5100931;28;20184;-80
2020/12/11 04:10:46;;;;;;;1.07;1.00;;;3.60;99.90;;;;;;5082625;28;20176;-79
2020/12/11 04:13:12;;;;;;;2.63;1.67;;;3.60;99.90;;;;;;5100979;28;20250;-80
2020/12/11 04:15:37;;;;;;;2.20;1.27;;;3.60;99.90;;;;;;5082564;28;20533;-79
2020/12/11 04:18:02;;;;;;;0.83;0.83;;;3.50;99.90;;;;;;5083018;28;20197;-80
2020/12/11 04:20:28;;;;;;;0.77;0.77;;;3.50;99.90;;;;;;5101132;28;20186;-80
2020/12/11 04:22:53;;;;;;;1.47;1.40;;;3.50;99.90;;;;;;5101069;28;20494;-79
2020/12/11 04:25:19;;;;;;;0.33;0.33;;;3.50;99.90;;;;;;5100983;28;20166;-79
2020/12/11 04:27:44;;;;;;;3.30;1.07;;;3.50;99.90;;;;;;5100407;28;20162;-80
2020/12/11 04:30:10;;;;;;;1.33;1.23;;;3.40;99.90;;;;;;5100626;28;20172;-79
2020/12/11 04:32:35;;;;;;;3.93;2.50;;;3.40;99.90;;;;;;5082988;28;20223;-78
2020/12/11 04:35:01;;;;;;;1.40;1.40;;;3.40;99.90;;;;;;5082392;28;20181;-79
2020/12/11 04:37:26;;;;;;;2.10;2.00;;;3.50;99.90;;;;;;5100970;28;20189;-80
2020/12/11 04:39:52;;;;;;;0.83;0.60;;;3.50;99.90;;;;;;5082194;28;20247;-80
2020/12/11 04:42:19;;;;;;;3.10;2.53;;;3.40;99.90;;;;;;5099992;28;20184;-80
2020/12/11 04:44:44;;;;;;;1.47;1.37;;;3.50;99.90;;;;;;5082789;28;20264;-79
2020/12/11 04:47:10;;;;;;;2.13;1.77;;;3.40;99.90;;;;;;5082546;28;20197;-79
2020/12/11 04:49:36;;;;;;;1.30;1.20;;;3.40;99.90;;;;;;5082125;28;20200;-80
2020/12/11 04:52:05;;;;;;;1.53;1.43;;;3.50;99.90;;;;;;5100342;28;20170;-80
2020/12/11 04:54:36;;;;;;;0.73;0.73;;;3.50;99.90;;;;;;5082285;28;20174;-79
2020/12/11 04:57:04;;;;;;;0.60;0.60;;;3.50;99.90;;;;;;5100420;28;20153;-79
2020/12/11 04:59:29;;;;;;;1.30;1.13;;;3.50;99.90;;;;;;5100259;28;20192;-80
2020/12/11 05:01:58;;;;;;;1.10;1.10;;;3.60;99.90;;;;;;5082434;28;20652;-80
2020/12/11 05:04:26;;;;;;;1.47;1.43;;;3.60;99.90;;;;;;5081399;28;20177;-78
2020/12/11 05:06:51;;;;;;;2.60;1.97;;;3.60;99.90;;;;;;5100208;28;20248;-80
2020/12/11 05:09:20;;;;;;;1.77;1.67;;;3.70;99.90;;;;;;5082267;28;20223;-79
2020/12/11 05:11:46;;;;;;;1.33;1.27;;;3.60;99.90;;;;;;5081506;28;20203;-79
2020/12/11 05:14:33;;;;;;;2.03;1.93;;;3.60;99.90;;;;;;5081746;28;20542;-79
2020/12/11 05:17:01;;;;;;;1.97;1.87;;;3.60;99.90;;;;;;5081749;28;20180;-79
2020/12/11 05:19:32;;;;;;;1.43;1.33;;;3.70;99.90;;;;;;5099018;28;20266;-80
2020/12/11 05:22:13;;;;;;;0.90;0.87;;;3.70;99.90;;;;;;5081543;28;20526;-79
2020/12/11 05:24:45;;;;;;;1.90;1.80;;;3.70;99.90;;;;;;5082093;28;20165;-80
2020/12/11 05:27:31;;;;;;;0.77;0.77;;;3.80;99.90;;;;;;5099887;28;20194;-80
2020/12/11 05:29:57;;;;;;;1.83;1.73;;;3.80;99.90;;;;;;5099204;28;20212;-79
2020/12/11 05:32:35;;;;;;;1.50;1.40;;;3.80;99.90;;;;;;5081715;28;20177;-80
2020/12/11 05:35:01;;;;;;;1.43;1.37;;;3.80;99.90;;;;;;5081390;28;20173;-80
2020/12/11 05:37:27;;;;;;;0.70;0.70;;;3.90;99.90;;;;;;5100104;28;20170;-79
2020/12/11 05:39:52;;;;;;;2.37;2.17;;;3.90;99.90;;;;;;5099578;28;20212;-79
2020/12/11 05:42:18;;;;;;;0.37;0.37;;;3.80;99.90;;;;;;5099542;28;20603;-79
2020/12/11 05:44:43;;;;;;;1.70;1.00;;;3.80;99.90;;;;;;5081355;28;20173;-79
2020/12/11 05:47:18;;;;;;;2.73;2.57;;;3.80;99.90;;;;;;5080863;28;20642;-79
2020/12/11 05:49:44;;;;;;;0.83;0.80;;;3.80;99.90;;;;;;5080892;28;20188;-80
2020/12/11 05:52:11;;;;;;;1.50;1.40;;;3.80;99.90;;;;;;5099184;28;20202;-80
2020/12/11 05:54:42;;;;;;;0.73;0.73;;;3.80;99.90;;;;;;5099476;28;20173;-80
2020/12/11 05:57:08;;;;;;;1.83;1.73;;;3.80;99.90;;;;;;5081457;28;20173;-79
2020/12/11 05:59:35;;;;;;;1.10;1.07;;;3.80;99.90;;;;;;5098580;28;20198;-78
2020/12/11 06:02:02;;;;;;;0.73;0.73;;;3.80;99.90;;;;;;5098796;28;20174;-80
2020/12/11 06:04:28;;;;;;;1.13;1.00;;;3.80;99.90;;;;;;5080868;28;20168;-80
2020/12/11 06:06:57;;;;;;;0.63;0.63;;;3.80;99.90;;;;;;5080814;28;20173;-78
2020/12/11 06:09:49;;;;;;;3.97;1.97;;;3.70;99.90;;;;;;5099142;28;20196;-79
2020/12/11 06:12:18;;;;;;;1.40;0.87;;;3.80;99.90;;;;;;5096371;28;20220;-79
2020/12/11 06:15:08;;;;;;;1.33;1.33;;;3.80;99.90;;;;;;5080767;28;20173;-79
2020/12/11 06:17:39;;;;;;;1.63;1.53;;;3.80;99.90;;;;;;5080854;28;20180;-80
2020/12/11 06:20:08;;;;;;;1.90;1.73;;;3.70;99.90;;;;;;5076445;28;20212;-78
2020/12/11 06:22:34;;;;;;;0.63;0.33;;;3.70;99.90;;;;;;5093723;28;20173;-78
2020/12/11 06:25:30;;;;;;;1.40;1.30;;;3.80;99.90;;;;;;5093666;28;20223;-78
2020/12/11 06:27:57;;;;;;;1.57;0.57;;;3.80;99.90;;;;;;5086913;28;20181;-78
2020/12/11 06:30:33;;;;;;;1.90;1.73;;;3.80;99.90;;;;;;5075520;28;20193;-78
2020/12/11 06:33:00;;;;;;;1.03;0.93;;;3.70;99.90;;;;;;5075514;28;20176;-78
2020/12/11 06:35:27;;;;;;;1.27;1.03;;;3.70;99.90;;;;;;5093538;28;20604;-78
2020/12/11 06:37:53;;;;;;;0.70;0.70;;;3.70;99.90;;;;;;5093462;28;20198;-78
2020/12/11 06:40:45;;;;;;;1.53;1.43;;;3.80;99.90;;;;;;5093736;28;20288;-78
2020/12/11 06:43:31;;;;;;;0.43;0.43;;;3.80;99.90;;;;;;5093769;28;20554;-78
2020/12/11 06:46:11;;;;;;;0.87;0.87;;;3.70;99.90;;;;;;5093227;28;20184;-78
2020/12/11 06:48:56;;;;;;;2.83;1.63;;;3.80;99.90;;;;;;5093472;28;20239;-78
2020/12/11 06:51:22;;;;;;;1.00;0.87;;;3.80;99.90;;;;;;5075289;28;20180;-78
2020/12/11 06:53:47;;;;;;;0.97;0.87;;;3.80;99.90;;;;;;5094914;28;20235;-78
2020/12/11 06:56:39;;;;;;;0.63;0.63;;;3.70;99.90;;;;;;5076636;28;20175;-86
2020/12/11 06:59:23;;;;;;;2.33;1.90;;;3.60;99.90;;;;;;5097609;28;20538;-78
2020/12/11 07:01:53;;;;;;;1.07;0.53;;;3.70;99.90;;;;;;5080571;28;20194;-79
2020/12/11 07:04:19;;;;;;;1.47;1.43;;;3.50;99.90;;;;;;5099077;28;20256;-79
2020/12/11 07:06:52;;;;;;;2.63;1.07;;;3.60;99.90;;;;;;5099507;28;20189;-79
2020/12/11 07:09:19;;;;;;;2.47;1.23;;;3.60;99.90;;;;;;5098888;28;20196;-79
2020/12/11 07:11:46;;;;;;;1.10;1.10;;;3.50;99.90;;;;;;5098838;28;20175;-78
2020/12/11 07:14:12;;;;;;;2.83;1.17;;;3.60;99.90;;;;;;5080684;28;20268;-79
2020/12/11 07:16:42;;;;;;;1.27;1.17;;;3.50;99.90;;;;;;5080188;28;20238;-78
2020/12/11 07:19:08;;;;;;;0.73;0.73;;;3.60;99.90;;;;;;5080032;28;20708;-80
2020/12/11 07:21:34;;;;;;;0.40;0.40;;;3.50;99.90;;;;;;5098422;28;20161;-79
2020/12/11 07:24:04;;;;;;;1.93;0.93;;;3.60;99.90;;;;;;5098722;28;20300;-77
2020/12/11 07:26:30;;;;;;;2.23;2.03;;;3.60;99.90;;;;;;5098736;28;20165;-79
2020/12/11 07:29:07;;;;;;;1.20;1.13;;;3.70;99.90;;;;;;5080220;28;20199;-78
2020/12/11 07:31:39;;;;;;;1.50;1.40;;;3.70;99.90;;;;;;5099153;28;20165;-78
2020/12/11 07:34:15;;;;;;;0.93;0.93;;;3.70;99.90;;;;;;5083043;28;20193;-78
2020/12/11 07:36:41;;;;;;;1.90;1.80;;;3.70;99.90;;;;;;5081863;28;20157;-79
2020/12/11 07:39:18;;;;;;;3.30;1.53;;;3.70;99.90;;;;;;5080101;28;20205;-79
2020/12/11 07:41:45;;;;;;;1.87;1.77;;;3.70;99.90;;;;;;5080478;28;20641;-79
2020/12/11 07:44:21;;;;;;;2.27;2.17;;;3.70;99.90;;;;;;5099390;28;20544;-78
2020/12/11 07:46:46;;;;;;;1.57;1.57;;;3.70;99.90;;;;;;5079882;28;20541;-78
2020/12/11 07:49:12;;;;;;;1.80;1.10;;;3.70;99.90;;;;;;5097318;28;20197;-79
2020/12/11 07:51:47;;;;;;;1.53;1.43;;;3.70;99.90;;;;;;5097947;28;20176;-78
2020/12/11 07:54:13;;;;;;;3.63;1.97;;;3.70;99.90;;;;;;5097620;28;20166;-78
2020/12/11 07:56:39;;;;;;;2.63;1.23;;;3.70;99.90;;;;;;5079440;28;20263;-78
2020/12/11 07:59:13;;;;;;;2.70;2.60;;;3.70;99.90;;;;;;5097683;28;20232;-78
2020/12/11 08:01:39;;;;;;;2.43;1.67;;;3.70;99.90;;;;;;5096615;28;20572;-77
2020/12/11 08:04:05;;;;;;;2.53;1.63;;;3.80;99.90;;;;;;5096525;28;20170;-78
2020/12/11 08:06:31;;;;;;;1.30;1.30;;;3.80;99.90;;;;;;5096333;28;20637;-79
2020/12/11 08:08:57;;;;;;;2.63;2.43;;;3.80;99.90;;;;;;5095876;28;20277;-78
2020/12/11 08:11:26;;;;;;;0.50;0.50;;;3.80;99.90;;;;;;5097828;28;20247;-78
2020/12/11 08:14:02;;;;;;;1.37;1.27;;;3.90;99.90;;;;;;5080883;28;20279;-78
2020/12/11 08:16:29;;;;;;;0.93;0.93;;;3.90;99.90;;;;;;5080030;28;20172;-78
2020/12/11 08:18:55;;;;;;;2.07;1.97;;;3.90;99.90;;;;;;5078903;28;20627;-79
2020/12/11 08:21:31;;;;;;;3.40;1.90;;;4.00;99.90;;;;;;5097233;28;20166;-78
2020/12/11 08:23:58;;;;;;;0.63;0.63;;;4.00;99.90;;;;;;5078496;28;20187;-79
2020/12/11 08:26:35;;;;;;;1.27;1.27;;;4.10;99.90;;;;;;5096340;28;20165;-79
2020/12/11 08:29:08;;;;;;;0.30;0.30;;;4.20;99.90;;;;;;5078344;28;20262;-78
2020/12/11 08:31:42;;;;;;;1.30;1.20;;;4.20;99.90;;;;;;5077662;28;20685;-78
2020/12/11 08:34:13;;;;;;;1.37;1.27;;;4.30;99.90;;;;;;5095742;28;20617;-78
2020/12/11 08:36:41;;;;;;;1.23;1.13;;;4.30;99.90;;;;;;5095632;28;20638;-78
2020/12/11 08:39:09;;;;;;;2.30;2.10;;;4.40;99.90;;;;;;5077303;28;20197;-78
2020/12/11 08:41:39;;;;;;;0.73;0.70;;;4.40;99.90;;;;;;5077457;28;20174;-78
2020/12/11 08:44:12;;;;;;;1.40;1.30;;;4.40;99.90;;;;;;5095860;28;20147;-78
2020/12/11 08:49:44;;;;;;;0.50;0.50;;;4.50;99.90;;;;;;5095701;28;20215;-78
2020/12/11 08:52:10;;;;;;;1.33;1.30;;;4.50;99.90;;;;;;5077232;28;20174;-78
2020/12/11 08:54:36;;;;;;;0.37;0.37;;;4.50;99.90;;;;;;5095307;28;20511;-78
2020/12/11 08:57:01;;;;;;;1.43;1.33;;;4.50;99.90;;;;;;5095262;28;20174;-78
2020/12/11 08:59:27;;;;;;;0.77;0.77;;;4.60;99.90;;;;;;5095050;28;20527;-78
2020/12/11 09:01:52;;;;;;;2.03;1.93;;;4.60;99.90;;;;;;5077042;28;20560;-78
2020/12/11 09:04:18;;;;;;;1.80;1.50;;;4.60;99.90;;;;;;5095161;28;20718;-78
2020/12/11 09:06:44;;;;;;;1.17;0.93;;;4.70;99.90;;;;;;5076978;28;20208;-78
2020/12/11 09:09:10;;;;;;;0.90;0.90;;;4.80;99.90;;;;;;5094947;28;20683;-78
2020/12/11 09:11:36;;;;;;;0.87;0.87;;;4.70;99.90;;;;;;5076850;28;20657;-78
2020/12/11 09:14:02;;;;;;;2.30;2.00;;;4.70;99.90;;;;;;5076787;28;20170;-78
2020/12/11 09:16:27;;;;;;;5.20;2.30;;;4.80;99.90;;;;;;5076706;28;20530;-78
2020/12/11 09:18:53;;;;;;;1.37;1.27;;;4.70;99.90;;;;;;5094713;28;20589;-78
2020/12/11 09:21:18;;;;;;;2.70;1.80;;;4.80;99.90;;;;;;5093992;28;20223;-78
2020/12/11 09:23:44;;;;;;;1.17;1.03;;;4.80;99.90;;;;;;5076588;28;20186;-78
2020/12/11 09:26:10;;;;;;;1.33;1.23;;;4.80;99.90;;;;;;5095007;28;20162;-78
2020/12/11 09:28:36;;;;;;;0.40;0.40;;;4.80;99.90;;;;;;5094722;28;20314;-78
2020/12/11 09:31:02;;;;;;;0.03;0.03;;;4.90;99.90;;;;;;5094894;28;20518;-78
2020/12/11 09:33:29;;;;;;;1.27;1.17;;;4.90;99.90;;;;;;5076985;28;20167;-79
2020/12/11 09:35:55;;;;;;;1.37;1.17;;;5.00;99.90;;;;;;5077537;28;20177;-79
2020/12/11 09:38:20;;;;;;;0.47;0.37;;;5.00;99.90;;;;;;5095683;28;20264;-78
2020/12/11 09:40:50;;;;;;;0.70;0.60;;;5.00;99.90;;;;;;5094723;28;20222;-77
2020/12/11 09:48:52;;;;;;;0.90;0.90;;;5.20;99.90;;;;;;5094303;28;20200;-78
2020/12/11 09:56:21;;;;;;;0.33;0.33;;;5.30;99.90;;;;;;5094459;28;20196;-78
2020/12/11 09:58:47;;;;;;;0.50;0.50;;;5.30;99.90;;;;;;5094624;28;20177;-81
2020/12/11 10:01:12;;;;;;;1.40;0.93;;;5.40;99.90;;;;;;5094649;28;20295;-78
2020/12/11 10:03:40;;;;;;;0.67;0.57;;;5.40;99.90;;;;;;5075985;28;20169;-78
2020/12/11 10:06:08;;;;;;;0.80;0.80;;;5.40;99.90;;;;;;5093956;28;20219;-78
2020/12/11 10:08:34;;;;;;;0.70;0.70;;;5.40;99.90;;;;;;5094087;28;20178;-78
2020/12/11 10:11:00;;;;;;;1.10;1.03;;;5.40;99.90;;;;;;5094134;28;20174;-77
2020/12/11 10:13:26;;;;;;;1.87;1.10;;;5.50;99.90;;;;;;5075697;28;20261;-78
2020/12/11 10:15:52;;;;;;;1.07;0.87;;;5.50;99.90;;;;;;5093839;28;20162;-77
2020/12/11 10:18:17;;;;;;;0.83;0.83;;;5.50;99.90;;;;;;5093731;28;20201;-78
2020/12/11 10:20:44;;;;;;;0.40;0.40;;;5.50;99.90;;;;;;5075664;28;20186;-77
2020/12/11 10:23:09;;;;;;;1.23;1.13;;;5.50;99.90;;;;;;5094032;28;20185;-77
2020/12/11 10:25:38;;;;;;;1.03;0.93;;;5.60;99.90;;;;;;5094168;28;20546;-80
2020/12/11 10:28:03;;;;;;;0.97;0.90;;;5.60;99.90;;;;;;5093803;28;20166;-77
2020/12/11 10:30:29;;;;;;;1.33;1.27;;;5.60;99.90;;;;;;5075637;28;20174;-77
2020/12/11 10:32:55;;;;;;;0.57;0.57;;;5.60;99.90;;;;;;5093768;28;20174;-78
2020/12/11 10:35:21;;;;;;;1.10;1.10;;;5.70;99.90;;;;;;5093624;28;20201;-77
2020/12/11 10:37:47;;;;;;;0.70;0.70;;;5.70;99.90;;;;;;5093440;28;20204;-77
2020/12/11 10:40:12;;;;;;;1.13;1.13;;;5.70;99.90;;;;;;5075532;28;20676;-79
2020/12/11 10:42:38;;;;;;;1.60;0.93;;;5.70;99.90;;;;;;5075698;28;20165;-77
2020/12/11 10:45:03;;;;;;;3.03;0.33;;;5.70;99.90;;;;;;5093605;28;20181;-78
2020/12/11 10:47:30;;;;;;;0.63;0.63;;;5.70;99.90;;;;;;5075671;28;20208;-78
2020/12/11 10:49:55;;;;;;;0.73;0.73;;;5.70;99.90;;;;;;5075258;28;20189;-78
2020/12/11 10:52:21;;;;;;;1.37;1.30;;;5.70;99.90;;;;;;5106880;28;20536;-80
2020/12/11 10:54:47;;;;;;;0.97;0.97;;;5.70;99.90;;;;;;5108628;28;20169;-79
2020/12/11 10:57:13;;;;;;;0.70;0.60;;;5.80;99.90;;;;;;5110154;28;20170;-80
2020/12/11 10:59:39;;;;;;;1.00;1.00;;;5.80;99.90;;;;;;5091175;28;20202;-79
2020/12/11 11:02:05;;;;;;;0.10;0.10;;;5.80;99.90;;;;;;5089931;28;20166;-79
2020/12/11 11:04:30;;;;;;;0.77;0.77;;;5.80;99.90;;;;;;5088133;28;20235;-79
2020/12/11 11:07:10;;;;;;;0.90;0.90;;;5.80;99.90;;;;;;5099190;28;20166;-80
2020/12/11 11:09:45;;;;;;;0.20;0.20;;;5.90;99.90;;;;;;5079622;28;20223;-80
2020/12/11 11:20:02;;;;;;;0.20;0.20;;;6.30;99.90;;;;;;5099648;28;20202;-79
2020/12/11 11:25:29;;;;;;;0.33;0.33;;;6.30;99.90;;;;;;5093881;28;20654;-80
2020/12/11 11:27:58;;;;;;;0.70;0.70;;;6.30;99.90;;;;;;5093224;28;20170;-81
2020/12/11 11:30:26;;;;;;;0.47;0.47;;;6.40;99.90;;;;;;5081732;28;20697;-79
2020/12/11 11:32:51;;;;;;;0.67;0.67;;;6.40;99.90;;;;;;5099032;28;20249;-79
2020/12/11 11:35:17;;;;;;;0.20;0.20;;;6.40;99.90;;;;;;5099635;28;20212;-79
2020/12/11 11:37:43;;;;;;;0.17;0.17;;;6.40;99.90;;;;;;5081733;28;20174;-79
2020/12/11 11:40:09;;;;;;;0.30;0.30;;;6.40;99.90;;;;;;5081310;28;20222;-79
2020/12/11 11:42:34;;;;;;;0.53;0.53;;;6.50;99.90;;;;;;5099833;28;20158;-79
2020/12/11 11:45:02;;;;;;;1.97;1.80;;;6.50;99.90;;;;;;5103433;28;20169;-79
2020/12/11 11:47:28;;;;;;;0.20;0.20;;;6.50;99.90;;;;;;5109109;28;20161;-79
2020/12/11 11:54:51;;;;;;;0.30;0.30;;;6.70;99.90;;;;;;5106096;28;20146;-79
2020/12/11 11:57:16;;;;;;;0.73;0.73;;;6.60;99.90;;;;;;5102031;28;20699;-79
2020/12/11 11:59:43;;;;;;;1.60;0.73;;;6.70;99.90;;;;;;5086391;28;20198;-78
2020/12/11 12:02:08;;;;;;;0.37;0.37;;;6.60;99.90;;;;;;5085754;28;20280;-79
2020/12/11 12:04:34;;;;;;;1.23;0.70;;;6.60;99.90;;;;;;5104622;28;20166;-79
2020/12/11 12:06:59;;;;;;;1.10;0.33;;;6.60;99.90;;;;;;5109126;28;20170;-79
2020/12/11 12:09:25;;;;;;;1.30;1.30;;;6.60;99.90;;;;;;5093999;28;20277;-79
2020/12/11 12:11:50;;;;;;;0.53;0.47;;;6.60;99.90;;;;;;5092485;28;20174;-79
2020/12/11 12:14:16;;;;;;;1.33;0.97;;;6.60;99.90;;;;;;5110629;28;20209;-79
2020/12/11 12:16:43;;;;;;;0.33;0.33;;;6.70;99.90;;;;;;5093403;28;20177;-79
2020/12/11 12:19:14;;;;;;;0.73;0.53;;;6.60;99.90;;;;;;5092482;28;20685;-79
2020/12/11 12:22:22;;;;;;;1.37;1.17;;;6.60;99.90;;;;;;5110548;28;20151;-79
2020/12/11 12:29:50;;;;;;;0.47;0.47;;;6.50;99.90;;;;;;5102998;28;20194;-80
2020/12/11 12:32:18;;;;;;;1.03;0.97;;;6.50;99.90;;;;;;5083561;28;20196;-80
2020/12/11 12:34:57;;;;;;;1.83;1.23;;;6.40;99.90;;;;;;5083063;28;20181;-83
2020/12/11 12:45:16;;;;;;;0.90;0.90;;;6.40;99.90;;;;;;5106791;28;20150;-80
2020/12/11 12:47:41;;;;;;;1.73;1.07;;;6.40;99.90;;;;;;5088828;28;20177;-79
2020/12/11 12:50:08;;;;;;;0.93;0.93;;;6.40;99.90;;;;;;5091749;28;20577;-78
2020/12/11 12:52:35;;;;;;;0.50;0.50;;;6.40;99.90;;;;;;5106826;28;20221;-81
2020/12/11 12:55:01;;;;;;;0.53;0.53;;;6.40;99.90;;;;;;5107397;28;20168;-78
2020/12/11 12:57:41;;;;;;;0.97;0.67;;;6.40;99.90;;;;;;5090939;28;20189;-79
2020/12/11 13:00:19;;;;;;;0.20;0.20;;;6.50;99.90;;;;;;5088334;28;20224;-79
2020/12/11 13:05:29;;;;;;;0.30;0.30;;;6.60;99.90;;;;;;5104410;28;20157;-79
2020/12/11 13:07:54;;;;;;;0.20;0.20;;;6.50;99.90;;;;;;5089029;28;20170;-79
2020/12/11 13:10:20;;;;;;;0.50;0.50;;;6.60;99.90;;;;;;5104291;28;20175;-79
2020/12/11 13:12:47;;;;;;;0.10;0.10;;;6.60;99.90;;;;;;5086887;28;20254;-78
2020/12/11 13:15:13;;;;;;;0.60;0.60;;;6.60;99.90;;;;;;5102952;28;20196;-79
2020/12/11 13:17:38;;;;;;;0.80;0.53;;;6.60;99.90;;;;;;5085961;28;20238;-79
2020/12/11 13:20:06;;;;;;;0.87;0.87;;;6.60;99.90;;;;;;5084619;28;20198;-80
2020/12/11 13:27:46;;;;;;;0.30;0.30;;;6.70;99.90;;;;;;5104022;28;20154;-79
2020/12/11 13:30:12;;;;;;;0.80;0.77;;;6.70;99.90;;;;;;5107909;28;20185;-78
2020/12/11 13:32:38;;;;;;;2.17;1.60;;;6.70;99.90;;;;;;5109739;28;20178;-78
2020/12/11 13:35:04;;;;;;;3.03;0.73;;;6.80;99.90;;;;;;5088370;28;20179;-79
2020/12/11 13:37:30;;;;;;;1.17;0.93;;;6.80;99.90;;;;;;5090244;28;20204;-77
2020/12/11 13:40:01;;;;;;;0.70;0.70;;;6.80;99.90;;;;;;5106006;28;20303;-79
2020/12/11 13:42:29;;;;;;;0.50;0.50;;;6.80;99.90;;;;;;5107238;28;20546;-78
2020/12/11 13:44:55;;;;;;;0.67;0.67;;;6.80;99.90;;;;;;5089830;28;20183;-79
2020/12/11 13:47:20;;;;;;;2.13;1.87;;;6.80;99.90;;;;;;5087512;28;20174;-79
2020/12/11 13:49:46;;;;;;;2.00;1.90;;;6.80;99.90;;;;;;5082045;28;20562;-79
2020/12/11 13:52:11;;;;;;;2.97;2.73;;;6.80;99.90;;;;;;5098970;28;20199;-80